createdAt,value
2019-01-24T00:00:31.907Z,-2.23
2019-01-24T00:03:05.901Z,-2.23
2019-01-24T00:05:44.708Z,-2.24
2019-01-24T00:08:17.557Z,-2.24
2019-01-24T00:10:51.394Z,-2.26
2019-01-24T00:13:25.659Z,-2.28
2019-01-24T00:15:59.556Z,-2.30
2019-01-24T00:18:33.203Z,-2.32
2019-01-24T00:21:07.445Z,-2.27
2019-01-24T00:23:40.434Z,-2.22
2019-01-24T00:26:14.377Z,-2.22
2019-01-24T00:28:47.804Z,-2.22
2019-01-24T00:31:21.358Z,-2.21
2019-01-24T00:33:54.446Z,-2.16
2019-01-24T00:36:31.236Z,-2.22
2019-01-24T00:39:07.366Z,-2.23
2019-01-24T00:41:40.484Z,-2.20
2019-01-24T00:44:15.901Z,-2.23
2019-01-24T00:46:49.908Z,-2.25
2019-01-24T00:49:22.655Z,-2.18
2019-01-24T00:51:55.950Z,-2.19
2019-01-24T00:54:28.874Z,-2.26
2019-01-24T00:57:01.895Z,-2.26
2019-01-24T00:59:37.167Z,-2.30
2019-01-24T01:02:10.363Z,-2.30
2019-01-24T01:04:43.853Z,-2.38
2019-01-24T01:07:17.381Z,-2.44
2019-01-24T01:09:50.576Z,-2.46
2019-01-24T01:12:23.395Z,-2.47
2019-01-24T01:14:56.691Z,-2.46
2019-01-24T01:17:29.674Z,-2.46
2019-01-24T01:20:03.948Z,-2.47
2019-01-24T01:22:38.764Z,-2.46
2019-01-24T01:25:12.328Z,-2.46
2019-01-24T01:27:46.272Z,-2.47
2019-01-24T01:30:23.831Z,-2.43
2019-01-24T01:32:57.154Z,-2.41
2019-01-24T01:35:31.597Z,-2.39
2019-01-24T01:38:06.689Z,-2.41
2019-01-24T01:40:39.587Z,-2.40
2019-01-24T01:43:12.517Z,-2.42
2019-01-24T01:45:46.058Z,-2.51
2019-01-24T01:48:20.893Z,-2.54
2019-01-24T01:50:53.722Z,-2.53
2019-01-24T01:53:27.258Z,-2.48
2019-01-24T01:56:00.216Z,-2.52
2019-01-24T01:58:33.209Z,-2.52
2019-01-24T02:01:07.391Z,-2.47
2019-01-24T02:03:40.466Z,-2.52
2019-01-24T02:06:13.449Z,-2.45
2019-01-24T02:08:46.744Z,-2.40
2019-01-24T02:11:19.599Z,-2.42
2019-01-24T02:13:52.820Z,-2.44
2019-01-24T02:16:26.098Z,-2.39
2019-01-24T02:18:59.410Z,-2.41
2019-01-24T02:21:33.020Z,-2.52
2019-01-24T02:24:06.743Z,-2.55
2019-01-24T02:26:39.617Z,-2.50
2019-01-24T02:29:12.412Z,-2.55
2019-01-24T02:31:45.828Z,-2.59
2019-01-24T02:34:19.080Z,-2.62
2019-01-24T02:36:52.563Z,-2.63
2019-01-24T02:39:26.026Z,-2.62
2019-01-24T02:41:59.266Z,-2.69
2019-01-24T02:44:32.104Z,-2.73
2019-01-24T02:47:06.855Z,-2.71
2019-01-24T02:49:39.835Z,-2.72
2019-01-24T02:52:12.840Z,-2.73
2019-01-24T02:54:47.246Z,-2.75
2019-01-24T02:57:20.879Z,-2.71
2019-01-24T02:59:53.823Z,-2.68
2019-01-24T03:02:27.147Z,-2.72
2019-01-24T03:05:00.245Z,-2.72
2019-01-24T03:07:33.825Z,-2.73
2019-01-24T03:10:10.614Z,-2.78
2019-01-24T03:12:44.071Z,-2.82
2019-01-24T03:15:19.543Z,-2.80
2019-01-24T03:17:53.361Z,-2.79
2019-01-24T03:20:26.295Z,-2.78
2019-01-24T03:22:59.540Z,-2.79
2019-01-24T03:25:32.827Z,-2.80
2019-01-24T03:28:06.276Z,-2.83
2019-01-24T03:30:39.101Z,-2.83
2019-01-24T03:33:16.497Z,-2.81
2019-01-24T03:35:49.347Z,-2.83
2019-01-24T03:38:22.295Z,-2.89
2019-01-24T03:40:55.646Z,-2.95
2019-01-24T03:43:28.770Z,-2.95
2019-01-24T03:46:01.459Z,-2.97
2019-01-24T03:48:35.878Z,-2.97
2019-01-24T03:51:08.680Z,-2.91
2019-01-24T03:53:41.739Z,-2.93
2019-01-24T03:56:15.048Z,-2.95
2019-01-24T03:58:48.030Z,-2.94
2019-01-24T04:01:20.936Z,-2.93
2019-01-24T04:03:55.108Z,-2.87
2019-01-24T04:06:28.005Z,-2.91
2019-01-24T04:09:01.193Z,-2.96
2019-01-24T04:11:35.505Z,-2.99
2019-01-24T04:14:08.620Z,-3.01
2019-01-24T04:16:41.500Z,-2.97
2019-01-24T04:19:15.123Z,-2.92
2019-01-24T04:21:48.092Z,-2.98
2019-01-24T04:24:21.354Z,-3.00
2019-01-24T04:26:54.624Z,-3.03
2019-01-24T04:29:27.472Z,-3.05
2019-01-24T04:32:00.419Z,-3.03
2019-01-24T04:34:35.687Z,-3.01
2019-01-24T04:37:09.084Z,-3.05
2019-01-24T04:39:43.100Z,-3.08
2019-01-24T04:42:16.452Z,-3.07
2019-01-24T04:44:49.504Z,-3.05
2019-01-24T04:47:22.464Z,-3.08
2019-01-24T04:49:55.869Z,-3.09
2019-01-24T04:52:28.829Z,-3.10
2019-01-24T04:55:01.858Z,-3.11
2019-01-24T04:57:35.839Z,-3.07
2019-01-24T05:00:23.486Z,-3.11
2019-01-24T05:02:56.576Z,-3.14
2019-01-24T05:05:30.014Z,-3.15
2019-01-24T05:08:02.986Z,-3.17
2019-01-24T05:10:35.875Z,-3.09
2019-01-24T05:13:11.041Z,-3.10
2019-01-24T05:15:43.885Z,-3.10
2019-01-24T05:18:17.760Z,-3.10
2019-01-24T05:20:50.850Z,-3.10
2019-01-24T05:23:23.709Z,-3.10
2019-01-24T05:25:56.708Z,-3.09
2019-01-24T05:28:30.308Z,-3.08
2019-01-24T05:31:03.733Z,-3.08
2019-01-24T05:33:39.896Z,-3.02
2019-01-24T05:36:12.749Z,-3.04
2019-01-24T05:38:47.323Z,-3.09
2019-01-24T05:41:20.171Z,-3.12
2019-01-24T05:43:53.664Z,-3.14
2019-01-24T05:46:28.450Z,-3.14
2019-01-24T05:49:01.291Z,-3.13
2019-01-24T05:51:34.398Z,-3.12
2019-01-24T05:54:08.014Z,-3.12
2019-01-24T05:56:41.253Z,-3.13
2019-01-24T05:59:14.434Z,-3.12
2019-01-24T06:01:48.036Z,-3.10
2019-01-24T06:04:20.956Z,-3.07
2019-01-24T06:06:54.302Z,-3.10
2019-01-24T06:09:28.031Z,-3.08
2019-01-24T06:12:00.955Z,-3.07
2019-01-24T06:14:34.542Z,-3.10
2019-01-24T06:17:07.468Z,-3.13
2019-01-24T06:19:41.316Z,-3.16
2019-01-24T06:22:16.468Z,-3.17
2019-01-24T06:24:49.362Z,-3.19
2019-01-24T06:27:22.318Z,-3.24
2019-01-24T06:29:55.132Z,-3.25
2019-01-24T06:32:29.365Z,-3.24
2019-01-24T06:35:02.303Z,-3.25
2019-01-24T06:37:35.512Z,-3.26
2019-01-24T06:40:10.405Z,-3.27
2019-01-24T06:42:44.494Z,-3.22
2019-01-24T06:45:21.107Z,-3.22
2019-01-24T06:47:54.979Z,-3.23
2019-01-24T06:50:30.323Z,-3.22
2019-01-24T06:53:03.216Z,-3.21
2019-01-24T06:55:36.280Z,-3.17
2019-01-24T06:58:09.814Z,-3.11
2019-01-24T07:00:42.993Z,-3.06
2019-01-24T07:03:17.845Z,-3.04
2019-01-24T07:05:55.500Z,-3.02
2019-01-24T07:08:30.413Z,-3.01
2019-01-24T07:11:05.512Z,-3.03
2019-01-24T07:13:40.723Z,-3.06
2019-01-24T07:16:21.220Z,-3.07
2019-01-24T07:18:54.155Z,-3.07
2019-01-24T07:21:27.793Z,-3.07
2019-01-24T07:24:02.260Z,-3.06
2019-01-24T07:26:36.238Z,-3.05
2019-01-24T07:29:10.726Z,-3.05
2019-01-24T07:31:46.740Z,-3.06
2019-01-24T07:34:20.471Z,-3.05
2019-01-24T07:36:54.010Z,-3.04
2019-01-24T07:39:29.382Z,-3.05
2019-01-24T07:42:03.182Z,-3.07
2019-01-24T07:44:38.873Z,-3.08
2019-01-24T07:47:12.828Z,-3.02
2019-01-24T07:49:49.103Z,-2.99
2019-01-24T07:52:22.061Z,-2.95
2019-01-24T07:54:55.926Z,-2.93
2019-01-24T07:57:30.695Z,-2.96
2019-01-24T08:00:10.556Z,-2.98
2019-01-24T08:02:46.131Z,-3.01
2019-01-24T08:05:19.902Z,-3.01
2019-01-24T08:07:55.256Z,-2.99
2019-01-24T08:10:29.167Z,-3.04
2019-01-24T08:13:02.736Z,-3.05
2019-01-24T08:15:39.355Z,-3.05
2019-01-24T08:18:12.412Z,-3.01
2019-01-24T08:20:47.501Z,-2.98
2019-01-24T08:23:20.984Z,-2.95
2019-01-24T08:25:55.140Z,-2.95
2019-01-24T08:28:29.849Z,-2.97
2019-01-24T08:31:04.414Z,-2.97
2019-01-24T08:33:45.064Z,-2.95
2019-01-24T08:36:23.361Z,-2.94
2019-01-24T08:38:57.080Z,-2.98
2019-01-24T08:41:32.132Z,-3.02
2019-01-24T08:44:08.100Z,-3.03
2019-01-24T08:46:41.850Z,-3.03
2019-01-24T08:49:15.850Z,-3.04
2019-01-24T08:51:49.702Z,-3.03
2019-01-24T08:54:22.631Z,-3.03
2019-01-24T08:56:58.246Z,-3.03
2019-01-24T08:59:31.384Z,-3.00
2019-01-24T09:02:04.977Z,-2.95
2019-01-24T09:04:38.447Z,-2.91
2019-01-24T09:07:12.308Z,-2.88
2019-01-24T09:09:48.947Z,-2.78
2019-01-24T09:12:30.207Z,-2.78
2019-01-24T09:15:07.110Z,-2.81
2019-01-24T09:17:41.429Z,-2.82
2019-01-24T09:20:17.512Z,-2.85
2019-01-24T09:22:55.272Z,-2.79
2019-01-24T09:25:36.710Z,-2.76
2019-01-24T09:28:15.022Z,-2.72
2019-01-24T09:30:50.431Z,-2.70
2019-01-24T09:33:24.136Z,-2.68
2019-01-24T09:36:03.359Z,-2.62
2019-01-24T09:38:38.320Z,-2.55
2019-01-24T09:41:12.686Z,-2.54
2019-01-24T09:43:50.437Z,-2.50
2019-01-24T09:46:24.884Z,-2.42
2019-01-24T09:49:00.077Z,-2.30
2019-01-24T09:51:33.836Z,-2.18
2019-01-24T09:54:10.463Z,-2.12
2019-01-24T09:56:43.779Z,-2.05
2019-01-24T09:59:18.431Z,-2.02
2019-01-24T10:01:52.081Z,-1.89
2019-01-24T10:04:27.737Z,-1.86
2019-01-24T10:07:02.835Z,-1.92
2019-01-24T10:09:35.577Z,-1.96
2019-01-24T10:12:10.582Z,-1.98
2019-01-24T10:14:47.398Z,-1.96
2019-01-24T10:17:22.305Z,-1.91
2019-01-24T10:19:55.703Z,-1.63
2019-01-24T10:22:28.706Z,-1.18
2019-01-24T10:25:01.612Z,-0.84
2019-01-24T10:27:35.903Z,-0.62
2019-01-24T10:30:14.320Z,-0.76
2019-01-24T10:32:47.822Z,-0.96
2019-01-24T10:35:24.163Z,-1.16
2019-01-24T10:38:00.570Z,-1.35
2019-01-24T10:40:36.425Z,-1.44
2019-01-24T10:43:10.323Z,-1.45
2019-01-24T10:45:46.269Z,-1.33
2019-01-24T10:48:20.808Z,-1.21
2019-01-24T10:50:54.662Z,-1.06
2019-01-24T10:53:29.453Z,-0.98
2019-01-24T10:56:05.429Z,-0.89
2019-01-24T10:58:41.526Z,-0.87
2019-01-24T11:01:26.412Z,-0.79
2019-01-24T11:04:01.567Z,-0.72
2019-01-24T11:06:35.380Z,-0.80
2019-01-24T11:09:10.776Z,-0.84
2019-01-24T11:11:44.429Z,-0.75
2019-01-24T11:14:17.733Z,-0.70
2019-01-24T11:16:54.095Z,-0.63
2019-01-24T11:19:27.057Z,-0.56
2019-01-24T11:22:00.992Z,-0.52
2019-01-24T11:24:35.436Z,-0.42
2019-01-24T11:27:09.035Z,-0.26
2019-01-24T11:29:42.437Z,-0.34
2019-01-24T11:32:16.607Z,-0.50
2019-01-24T11:34:50.709Z,-0.47
2019-01-24T11:37:25.367Z,-0.43
2019-01-24T11:40:01.519Z,-0.45
2019-01-24T11:42:35.270Z,-0.68
2019-01-24T11:45:12.658Z,-0.86
2019-01-24T11:47:45.744Z,-0.81
2019-01-24T11:50:23.023Z,-0.81
2019-01-24T11:52:57.325Z,-0.93
2019-01-24T11:55:30.369Z,-1.02
2019-01-24T11:58:04.348Z,-1.19
2019-01-24T12:00:48.536Z,-1.25
2019-01-24T12:03:25.428Z,-1.32
2019-01-24T12:06:00.234Z,-1.38
2019-01-24T12:08:33.325Z,-1.45
2019-01-24T12:11:07.300Z,-1.49
2019-01-24T12:13:40.989Z,-1.48
2019-01-24T12:16:13.841Z,-1.47
2019-01-24T12:18:47.370Z,-1.32
2019-01-24T12:21:21.849Z,-1.23
2019-01-24T12:23:59.008Z,-1.15
2019-01-24T12:26:32.307Z,-1.19
2019-01-24T12:29:05.658Z,-1.26
2019-01-24T12:31:39.503Z,-1.23
2019-01-24T12:34:14.169Z,-1.28
2019-01-24T12:36:47.974Z,-1.37
2019-01-24T12:39:21.658Z,-1.38
2019-01-24T12:41:58.825Z,-1.42
2019-01-24T12:44:33.026Z,-1.45
2019-01-24T12:47:09.522Z,-1.46
2019-01-24T12:49:45.066Z,-1.47
2019-01-24T12:52:18.593Z,-1.61
2019-01-24T12:54:51.959Z,-1.70
2019-01-24T12:57:25.127Z,-1.72
2019-01-24T12:59:59.824Z,-1.79
2019-01-24T13:02:33.245Z,-1.78
2019-01-24T13:05:09.640Z,-1.82
2019-01-24T13:07:43.592Z,-1.88
2019-01-24T13:10:21.388Z,-1.85
2019-01-24T13:12:57.024Z,-1.93
2019-01-24T13:15:34.257Z,-2.00
2019-01-24T13:18:11.108Z,-1.93
2019-01-24T13:20:44.842Z,-1.89
2019-01-24T13:23:20.869Z,-1.93
2019-01-24T13:25:54.821Z,-1.95
2019-01-24T13:28:29.658Z,-1.88
2019-01-24T13:31:07.841Z,-1.79
2019-01-24T13:33:41.713Z,-1.84
2019-01-24T13:36:16.205Z,-1.84
2019-01-24T13:38:49.197Z,-1.84
2019-01-24T13:41:25.256Z,-1.78
2019-01-24T13:43:59.702Z,-1.77
2019-01-24T13:46:36.048Z,-1.76
2019-01-24T13:49:10.955Z,-1.72
2019-01-24T13:51:44.411Z,-1.75
2019-01-24T13:54:18.712Z,-1.78
2019-01-24T13:56:53.821Z,-1.85
2019-01-24T13:59:27.739Z,-1.86
2019-01-24T14:02:03.376Z,-1.86
2019-01-24T14:04:45.320Z,-1.85
2019-01-24T14:07:18.493Z,-1.81
2019-01-24T14:10:03.667Z,-1.84
2019-01-24T14:12:38.167Z,-1.96
2019-01-24T14:15:17.711Z,-1.97
2019-01-24T14:17:51.868Z,-1.98
2019-01-24T14:20:25.803Z,-1.95
2019-01-24T14:23:03.296Z,-1.93
2019-01-24T14:25:37.621Z,-1.98
2019-01-24T14:28:10.869Z,-1.95
2019-01-24T14:30:45.426Z,-1.92
2019-01-24T14:33:21.555Z,-1.86
2019-01-24T14:35:56.410Z,-1.83
2019-01-24T14:38:30.332Z,-1.83
2019-01-24T14:41:06.138Z,-1.83
2019-01-24T14:43:39.632Z,-1.81
2019-01-24T14:46:18.189Z,-1.84
2019-01-24T14:48:55.096Z,-1.92
2019-01-24T14:51:29.027Z,-2.02
2019-01-24T14:54:03.986Z,-2.07
2019-01-24T14:56:37.444Z,-2.13
2019-01-24T14:59:10.894Z,-2.16
2019-01-24T15:01:45.009Z,-2.16
2019-01-24T15:04:23.751Z,-2.15
2019-01-24T15:06:59.882Z,-2.12
2019-01-24T15:09:36.418Z,-2.12
2019-01-24T15:12:11.273Z,-2.14
2019-01-24T15:14:56.211Z,-2.15
2019-01-24T15:17:32.355Z,-2.14
2019-01-24T15:20:09.980Z,-2.20
2019-01-24T15:22:49.851Z,-2.29
2019-01-24T15:25:26.802Z,-2.35
2019-01-24T15:28:01.076Z,-2.40
2019-01-24T15:30:34.831Z,-2.41
2019-01-24T15:33:13.424Z,-2.43
2019-01-24T15:35:48.509Z,-2.48
2019-01-24T15:38:26.483Z,-2.50
2019-01-24T15:41:02.072Z,-2.48
2019-01-24T15:43:37.801Z,-2.50
2019-01-24T15:46:15.485Z,-2.52
2019-01-24T15:48:57.815Z,-2.53
2019-01-24T15:51:37.889Z,-2.55
2019-01-24T15:54:14.788Z,-2.57
2019-01-24T15:56:50.568Z,-2.56
2019-01-24T15:59:23.695Z,-2.57
2019-01-24T16:01:58.991Z,-2.60
2019-01-24T16:04:33.839Z,-2.64
2019-01-24T16:07:07.743Z,-2.67
2019-01-24T16:09:42.207Z,-2.68
2019-01-24T16:12:17.790Z,-2.70
2019-01-24T16:14:52.623Z,-2.70
2019-01-24T16:17:28.429Z,-2.69
2019-01-24T16:20:10.012Z,-2.72
2019-01-24T16:22:47.455Z,-2.72
2019-01-24T16:25:26.599Z,-2.72
2019-01-24T16:28:02.330Z,-2.74
2019-01-24T16:30:39.727Z,-2.74
2019-01-24T16:33:14.108Z,-2.76
2019-01-24T16:35:49.877Z,-2.77
2019-01-24T16:38:28.287Z,-2.76
2019-01-24T16:41:04.055Z,-2.77
2019-01-24T16:43:40.508Z,-2.77
2019-01-24T16:46:14.022Z,-2.79
2019-01-24T16:48:50.596Z,-2.78
2019-01-24T16:51:30.296Z,-2.82
2019-01-24T16:54:13.676Z,-2.83
2019-01-24T16:56:52.766Z,-2.83
2019-01-24T16:59:28.247Z,-2.84
2019-01-24T17:02:01.708Z,-2.84
2019-01-24T17:04:36.969Z,-2.88
2019-01-24T17:07:12.419Z,-2.89
2019-01-24T17:09:47.514Z,-2.90
2019-01-24T17:12:20.446Z,-2.92
2019-01-24T17:15:08.380Z,-2.95
2019-01-24T17:17:42.792Z,-2.98
2019-01-24T17:20:24.162Z,-3.00
2019-01-24T17:23:01.256Z,-3.03
2019-01-24T17:25:35.111Z,-3.06
2019-01-24T17:28:08.746Z,-3.08
2019-01-24T17:30:44.592Z,-3.07
2019-01-24T17:33:19.841Z,-3.09
2019-01-24T17:35:53.636Z,-3.11
2019-01-24T17:38:27.672Z,-3.13
2019-01-24T17:41:02.366Z,-3.11
2019-01-24T17:43:38.433Z,-3.12
2019-01-24T17:46:12.370Z,-3.13
2019-01-24T17:48:45.466Z,-3.17
2019-01-24T17:51:20.034Z,-3.23
2019-01-24T17:53:53.766Z,-3.35
2019-01-24T17:56:29.101Z,-3.39
2019-01-24T17:59:04.262Z,-3.47
2019-01-24T18:01:37.375Z,-3.58
2019-01-24T18:04:13.354Z,-3.77
2019-01-24T18:06:47.058Z,-3.85
2019-01-24T18:09:22.957Z,-3.76
2019-01-24T18:11:59.760Z,-3.65
2019-01-24T18:14:35.618Z,-3.50
2019-01-24T18:17:13.329Z,-3.40
2019-01-24T18:19:56.020Z,-3.32
2019-01-24T18:22:31.365Z,-3.25
2019-01-24T18:25:09.765Z,-3.22
2019-01-24T18:27:49.143Z,-3.18
2019-01-24T18:30:29.197Z,-3.17
2019-01-24T18:33:02.473Z,-3.14
2019-01-24T18:35:38.191Z,-3.11
2019-01-24T18:38:14.542Z,-3.08
2019-01-24T18:40:51.350Z,-3.06
2019-01-24T18:43:28.555Z,-3.05
2019-01-24T18:46:06.677Z,-3.03
2019-01-24T18:48:41.279Z,-3.02
2019-01-24T18:51:29.415Z,-3.03
2019-01-24T18:54:08.707Z,-2.99
2019-01-24T18:56:44.805Z,-3.00
2019-01-24T18:59:20.613Z,-3.03
2019-01-24T19:02:00.562Z,-3.03
2019-01-24T19:04:34.625Z,-2.99
2019-01-24T19:07:09.073Z,-3.01
2019-01-24T19:09:44.558Z,-3.03
2019-01-24T19:12:20.465Z,-3.02
2019-01-24T19:14:54.546Z,-3.03
2019-01-24T19:17:29.464Z,-3.03
2019-01-24T19:20:05.090Z,-3.03
2019-01-24T19:22:38.217Z,-3.02
2019-01-24T19:25:15.211Z,-2.98
2019-01-24T19:27:55.919Z,-2.97
2019-01-24T19:30:39.317Z,-2.97
2019-01-24T19:33:15.409Z,-2.97
2019-01-24T19:36:00.262Z,-2.97
2019-01-24T19:38:38.059Z,-2.96
2019-01-24T19:41:14.072Z,-2.97
2019-01-24T19:43:49.486Z,-2.97
2019-01-24T19:46:24.729Z,-2.96
2019-01-24T19:49:03.278Z,-2.98
2019-01-24T19:51:37.365Z,-2.97
2019-01-24T19:54:16.004Z,-2.92
2019-01-24T19:56:54.882Z,-2.92
2019-01-24T19:59:30.834Z,-2.90
2019-01-24T20:02:06.560Z,-2.90
2019-01-24T20:04:46.250Z,-2.90
2019-01-24T20:07:23.314Z,-2.88
2019-01-24T20:09:57.866Z,-2.89
2019-01-24T20:12:34.333Z,-2.90
2019-01-24T20:15:20.976Z,-2.92
2019-01-24T20:17:58.382Z,-2.92
2019-01-24T20:20:37.681Z,-2.92
2019-01-24T20:23:11.814Z,-2.91
2019-01-24T20:25:47.535Z,-2.89
2019-01-24T20:28:21.962Z,-2.89
2019-01-24T20:30:58.416Z,-2.89
2019-01-24T20:33:35.200Z,-2.89
2019-01-24T20:36:15.060Z,-2.89
2019-01-24T20:38:52.997Z,-2.89
2019-01-24T20:41:26.837Z,-2.89
2019-01-24T20:44:02.449Z,-2.90
2019-01-24T20:46:35.959Z,-2.90
2019-01-24T20:49:13.068Z,-2.87
2019-01-24T20:51:49.439Z,-2.86
2019-01-24T20:54:22.648Z,-2.80
2019-01-24T20:56:57.431Z,-2.79
2019-01-24T20:59:33.715Z,-2.79
2019-01-24T21:02:15.236Z,-2.80
2019-01-24T21:04:56.415Z,-2.80
2019-01-24T21:07:33.714Z,-2.79
2019-01-24T21:10:12.386Z,-2.77
2019-01-24T21:12:50.481Z,-2.78
2019-01-24T21:15:26.522Z,-2.77
2019-01-24T21:17:59.747Z,-2.78
2019-01-24T21:20:37.505Z,-2.76
2019-01-24T21:23:15.585Z,-2.79
2019-01-24T21:25:51.554Z,-2.80
2019-01-24T21:28:28.265Z,-2.79
2019-01-24T21:31:01.796Z,-2.79
2019-01-24T21:33:43.347Z,-2.78
2019-01-24T21:36:19.394Z,-2.75
2019-01-24T21:38:57.537Z,-2.74
2019-01-24T21:41:30.600Z,-2.74
2019-01-24T21:44:04.698Z,-2.75
2019-01-24T21:46:40.086Z,-2.75
2019-01-24T21:49:14.103Z,-2.75
2019-01-24T21:51:53.719Z,-2.73
2019-01-24T21:54:32.454Z,-2.67
2019-01-24T21:57:07.858Z,-2.67
2019-01-24T21:59:44.079Z,-2.67
2019-01-24T22:02:20.884Z,-2.66
2019-01-24T22:04:54.929Z,-2.66
2019-01-24T22:07:29.314Z,-2.66
2019-01-24T22:10:03.337Z,-2.65
2019-01-24T22:12:37.680Z,-2.64
2019-01-24T22:15:19.764Z,-2.60
2019-01-24T22:17:57.476Z,-2.61
2019-01-24T22:20:35.990Z,-2.63
2019-01-24T22:23:14.442Z,-2.63
2019-01-24T22:25:49.956Z,-2.62
2019-01-24T22:28:26.816Z,-2.62
2019-01-24T22:31:05.832Z,-2.61
2019-01-24T22:33:43.107Z,-2.60
2019-01-24T22:36:16.963Z,-2.60
2019-01-24T22:38:50.895Z,-2.58
2019-01-24T22:41:26.708Z,-2.58
2019-01-24T22:44:02.501Z,-2.58
2019-01-24T22:46:36.531Z,-2.57
2019-01-24T22:49:15.962Z,-2.58
2019-01-24T22:51:49.908Z,-2.58
2019-01-24T22:54:28.905Z,-2.53
2019-01-24T22:57:06.047Z,-2.53
2019-01-24T22:59:41.010Z,-2.53
2019-01-24T23:02:25.383Z,-2.53
2019-01-24T23:04:58.278Z,-2.53
2019-01-24T23:07:36.286Z,-2.50
2019-01-24T23:10:10.696Z,-2.50
2019-01-24T23:12:46.417Z,-2.50
2019-01-24T23:15:22.674Z,-2.50
2019-01-24T23:17:55.712Z,-2.48
2019-01-24T23:20:34.289Z,-2.48
2019-01-24T23:23:11.883Z,-2.47
2019-01-24T23:25:46.491Z,-2.46
2019-01-24T23:28:21.784Z,-2.46
2019-01-24T23:30:56.879Z,-2.45
2019-01-24T23:33:29.820Z,-2.45
2019-01-24T23:36:06.355Z,-2.45
2019-01-24T23:38:41.943Z,-2.44
2019-01-24T23:41:15.135Z,-2.42
2019-01-24T23:43:48.018Z,-2.43
2019-01-24T23:46:21.219Z,-2.45
2019-01-24T23:48:55.482Z,-2.44
2019-01-24T23:51:28.425Z,-2.45
2019-01-24T23:54:01.381Z,-2.44
2019-01-24T23:56:34.783Z,-2.44
2019-01-24T23:59:08.584Z,-2.45
